sensor_id;sensor_type;location;lat;lon;timestamp;P1;durP1;ratioP1;P2;durP2;ratioP2
25439;SDS011;13365;52.208;5.488;2023-11-21T00:02:24;21.98;;;8.02;;
25439;SDS011;13365;52.208;5.488;2023-11-21T00:04:50;25.17;;;6.40;;
25439;SDS011;13365;52.208;5.488;2023-11-21T00:07:17;28.35;;;6.35;;
25439;SDS011;13365;52.208;5.488;2023-11-21T00:09:42;27.92;;;6.68;;
25439;SDS011;13365;52.208;5.488;2023-11-21T00:12:08;37.75;;;6.95;;
25439;SDS011;13365;52.208;5.488;2023-11-21T00:14:37;29.65;;;5.82;;
25439;SDS011;13365;52.208;5.488;2023-11-21T00:17:03;25.80;;;8.20;;
25439;SDS011;13365;52.208;5.488;2023-11-21T00:19:29;31.80;;;6.97;;
25439;SDS011;13365;52.208;5.488;2023-11-21T00:21:54;12.02;;;5.88;;
25439;SDS011;13365;52.208;5.488;2023-11-21T00:24:20;21.35;;;7.07;;
25439;SDS011;13365;52.208;5.488;2023-11-21T00:26:45;26.85;;;6.90;;
25439;SDS011;13365;52.208;5.488;2023-11-21T00:29:13;22.00;;;7.30;;
25439;SDS011;13365;52.208;5.488;2023-11-21T00:31:39;21.45;;;7.60;;
25439;SDS011;13365;52.208;5.488;2023-11-21T00:34:04;34.45;;;8.70;;
25439;SDS011;13365;52.208;5.488;2023-11-21T00:36:32;42.92;;;8.70;;
25439;SDS011;13365;52.208;5.488;2023-11-21T00:38:58;41.53;;;8.55;;
25439;SDS011;13365;52.208;5.488;2023-11-21T00:41:24;108.65;;;10.77;;
25439;SDS011;13365;52.208;5.488;2023-11-21T00:43:52;202.40;;;13.43;;
25439;SDS011;13365;52.208;5.488;2023-11-21T00:46:18;163.00;;;10.50;;
25439;SDS011;13365;52.208;5.488;2023-11-21T00:48:44;141.50;;;10.65;;
25439;SDS011;13365;52.208;5.488;2023-11-21T00:51:09;109.03;;;10.23;;
25439;SDS011;13365;52.208;5.488;2023-11-21T00:53:35;98.50;;;8.88;;
25439;SDS011;13365;52.208;5.488;2023-11-21T00:56:00;86.25;;;8.43;;
25439;SDS011;13365;52.208;5.488;2023-11-21T00:58:26;91.32;;;9.18;;
25439;SDS011;13365;52.208;5.488;2023-11-21T01:00:52;51.70;;;7.18;;
25439;SDS011;13365;52.208;5.488;2023-11-21T01:03:17;47.63;;;7.30;;
25439;SDS011;13365;52.208;5.488;2023-11-21T01:05:43;47.20;;;7.05;;
25439;SDS011;13365;52.208;5.488;2023-11-21T01:08:09;65.60;;;8.07;;
25439;SDS011;13365;52.208;5.488;2023-11-21T01:10:35;51.90;;;7.65;;
25439;SDS011;13365;52.208;5.488;2023-11-21T01:13:01;42.97;;;7.38;;
25439;SDS011;13365;52.208;5.488;2023-11-21T01:15:29;18.38;;;6.95;;
25439;SDS011;13365;52.208;5.488;2023-11-21T01:17:54;13.27;;;6.75;;
25439;SDS011;13365;52.208;5.488;2023-11-21T01:20:20;9.05;;;5.53;;
25439;SDS011;13365;52.208;5.488;2023-11-21T01:22:45;11.68;;;5.93;;
25439;SDS011;13365;52.208;5.488;2023-11-21T01:25:14;10.07;;;5.30;;
25439;SDS011;13365;52.208;5.488;2023-11-21T01:27:40;9.50;;;5.70;;
25439;SDS011;13365;52.208;5.488;2023-11-21T01:30:07;12.02;;;6.15;;
25439;SDS011;13365;52.208;5.488;2023-11-21T01:32:33;13.10;;;5.93;;
25439;SDS011;13365;52.208;5.488;2023-11-21T01:34:59;11.68;;;6.10;;
25439;SDS011;13365;52.208;5.488;2023-11-21T01:37:25;14.43;;;6.85;;
25439;SDS011;13365;52.208;5.488;2023-11-21T01:39:53;12.48;;;6.32;;
25439;SDS011;13365;52.208;5.488;2023-11-21T01:42:19;15.10;;;7.95;;
25439;SDS011;13365;52.208;5.488;2023-11-21T01:44:45;16.23;;;8.18;;
25439;SDS011;13365;52.208;5.488;2023-11-21T01:47:11;14.63;;;7.63;;
25439;SDS011;13365;52.208;5.488;2023-11-21T01:49:38;16.83;;;7.65;;
25439;SDS011;13365;52.208;5.488;2023-11-21T01:52:04;15.10;;;8.27;;
25439;SDS011;13365;52.208;5.488;2023-11-21T01:54:30;19.15;;;8.73;;
25439;SDS011;13365;52.208;5.488;2023-11-21T01:56:57;19.92;;;8.88;;
25439;SDS011;13365;52.208;5.488;2023-11-21T01:59:37;16.08;;;7.82;;
25439;SDS011;13365;52.208;5.488;2023-11-21T02:02:07;18.27;;;7.03;;
25439;SDS011;13365;52.208;5.488;2023-11-21T02:04:34;14.73;;;6.78;;
25439;SDS011;13365;52.208;5.488;2023-11-21T02:07:01;12.55;;;7.00;;
25439;SDS011;13365;52.208;5.488;2023-11-21T02:09:30;20.98;;;8.95;;
25439;SDS011;13365;52.208;5.488;2023-11-21T02:11:58;18.52;;;8.15;;
25439;SDS011;13365;52.208;5.488;2023-11-21T02:14:24;23.45;;;9.35;;
25439;SDS011;13365;52.208;5.488;2023-11-21T02:16:51;18.33;;;9.43;;
25439;SDS011;13365;52.208;5.488;2023-11-21T02:19:18;21.52;;;9.20;;
25439;SDS011;13365;52.208;5.488;2023-11-21T02:21:47;20.30;;;9.07;;
25439;SDS011;13365;52.208;5.488;2023-11-21T02:24:21;21.50;;;8.85;;
25439;SDS011;13365;52.208;5.488;2023-11-21T02:26:47;17.63;;;9.32;;
25439;SDS011;13365;52.208;5.488;2023-11-21T02:29:16;17.92;;;9.15;;
25439;SDS011;13365;52.208;5.488;2023-11-21T02:31:47;17.88;;;9.20;;
25439;SDS011;13365;52.208;5.488;2023-11-21T02:34:17;18.38;;;8.70;;
25439;SDS011;13365;52.208;5.488;2023-11-21T02:36:43;15.27;;;9.00;;
25439;SDS011;13365;52.208;5.488;2023-11-21T02:39:09;18.83;;;8.55;;
25439;SDS011;13365;52.208;5.488;2023-11-21T02:41:36;16.10;;;8.68;;
25439;SDS011;13365;52.208;5.488;2023-11-21T02:44:03;20.02;;;8.80;;
25439;SDS011;13365;52.208;5.488;2023-11-21T02:46:31;17.75;;;8.27;;
25439;SDS011;13365;52.208;5.488;2023-11-21T02:48:58;17.98;;;8.07;;
25439;SDS011;13365;52.208;5.488;2023-11-21T02:51:27;17.88;;;8.73;;
25439;SDS011;13365;52.208;5.488;2023-11-21T02:53:53;19.83;;;9.13;;
25439;SDS011;13365;52.208;5.488;2023-11-21T02:56:19;18.77;;;9.23;;
25439;SDS011;13365;52.208;5.488;2023-11-21T02:58:45;13.75;;;8.15;;
25439;SDS011;13365;52.208;5.488;2023-11-21T03:01:10;18.70;;;8.48;;
25439;SDS011;13365;52.208;5.488;2023-11-21T03:03:39;16.52;;;8.38;;
25439;SDS011;13365;52.208;5.488;2023-11-21T03:06:08;18.40;;;9.00;;
25439;SDS011;13365;52.208;5.488;2023-11-21T03:08:33;13.90;;;7.47;;
25439;SDS011;13365;52.208;5.488;2023-11-21T03:10:59;18.13;;;9.15;;
25439;SDS011;13365;52.208;5.488;2023-11-21T03:13:25;13.55;;;7.47;;
25439;SDS011;13365;52.208;5.488;2023-11-21T03:15:50;16.83;;;8.13;;
25439;SDS011;13365;52.208;5.488;2023-11-21T03:18:16;17.83;;;8.52;;
25439;SDS011;13365;52.208;5.488;2023-11-21T03:20:43;19.17;;;7.97;;
25439;SDS011;13365;52.208;5.488;2023-11-21T03:23:11;16.55;;;8.15;;
25439;SDS011;13365;52.208;5.488;2023-11-21T03:25:36;12.65;;;7.75;;
25439;SDS011;13365;52.208;5.488;2023-11-21T03:28:02;16.90;;;7.30;;
25439;SDS011;13365;52.208;5.488;2023-11-21T03:30:28;18.30;;;7.35;;
25439;SDS011;13365;52.208;5.488;2023-11-21T03:32:53;17.08;;;6.93;;
25439;SDS011;13365;52.208;5.488;2023-11-21T03:35:19;19.60;;;7.38;;
25439;SDS011;13365;52.208;5.488;2023-11-21T03:37:46;16.85;;;7.97;;
25439;SDS011;13365;52.208;5.488;2023-11-21T03:40:11;18.00;;;8.00;;
25439;SDS011;13365;52.208;5.488;2023-11-21T03:42:37;20.55;;;7.20;;
25439;SDS011;13365;52.208;5.488;2023-11-21T03:45:04;18.42;;;8.02;;
25439;SDS011;13365;52.208;5.488;2023-11-21T03:47:30;15.32;;;7.35;;
25439;SDS011;13365;52.208;5.488;2023-11-21T03:49:56;18.20;;;7.18;;
25439;SDS011;13365;52.208;5.488;2023-11-21T03:52:21;16.17;;;7.40;;
25439;SDS011;13365;52.208;5.488;2023-11-21T03:54:47;13.52;;;7.57;;
25439;SDS011;13365;52.208;5.488;2023-11-21T03:57:12;16.58;;;6.93;;
25439;SDS011;13365;52.208;5.488;2023-11-21T03:59:41;20.85;;;7.25;;
25439;SDS011;13365;52.208;5.488;2023-11-21T04:02:07;17.48;;;7.32;;
25439;SDS011;13365;52.208;5.488;2023-11-21T04:04:33;17.10;;;6.68;;
25439;SDS011;13365;52.208;5.488;2023-11-21T04:06:59;20.45;;;7.63;;
25439;SDS011;13365;52.208;5.488;2023-11-21T04:09:25;18.85;;;7.63;;
25439;SDS011;13365;52.208;5.488;2023-11-21T04:11:51;15.15;;;7.43;;
25439;SDS011;13365;52.208;5.488;2023-11-21T04:14:17;13.45;;;7.10;;
25439;SDS011;13365;52.208;5.488;2023-11-21T04:16:43;15.90;;;6.93;;
25439;SDS011;13365;52.208;5.488;2023-11-21T04:19:08;16.52;;;7.32;;
25439;SDS011;13365;52.208;5.488;2023-11-21T04:21:35;20.70;;;6.80;;
25439;SDS011;13365;52.208;5.488;2023-11-21T04:24:03;30.98;;;7.82;;
25439;SDS011;13365;52.208;5.488;2023-11-21T04:26:30;22.23;;;7.78;;
25439;SDS011;13365;52.208;5.488;2023-11-21T04:28:55;18.63;;;6.70;;
25439;SDS011;13365;52.208;5.488;2023-11-21T04:31:20;13.20;;;6.00;;
25439;SDS011;13365;52.208;5.488;2023-11-21T04:33:46;21.08;;;6.78;;
25439;SDS011;13365;52.208;5.488;2023-11-21T04:36:11;17.33;;;6.75;;
25439;SDS011;13365;52.208;5.488;2023-11-21T04:38:37;31.73;;;9.07;;
25439;SDS011;13365;52.208;5.488;2023-11-21T04:41:03;16.00;;;7.70;;
25439;SDS011;13365;52.208;5.488;2023-11-21T04:43:28;17.00;;;7.47;;
25439;SDS011;13365;52.208;5.488;2023-11-21T04:45:54;23.05;;;7.85;;
25439;SDS011;13365;52.208;5.488;2023-11-21T04:48:20;24.10;;;7.80;;
25439;SDS011;13365;52.208;5.488;2023-11-21T04:50:46;24.98;;;7.78;;
25439;SDS011;13365;52.208;5.488;2023-11-21T04:53:11;18.73;;;8.02;;
25439;SDS011;13365;52.208;5.488;2023-11-21T04:55:39;22.23;;;8.27;;
25439;SDS011;13365;52.208;5.488;2023-11-21T04:58:05;33.42;;;9.48;;
25439;SDS011;13365;52.208;5.488;2023-11-21T05:00:31;27.65;;;9.23;;
25439;SDS011;13365;52.208;5.488;2023-11-21T05:02:56;26.05;;;8.50;;
25439;SDS011;13365;52.208;5.488;2023-11-21T05:05:22;24.85;;;8.45;;
25439;SDS011;13365;52.208;5.488;2023-11-21T05:07:48;27.63;;;8.45;;
25439;SDS011;13365;52.208;5.488;2023-11-21T05:10:14;17.77;;;8.70;;
25439;SDS011;13365;52.208;5.488;2023-11-21T05:12:40;29.45;;;9.90;;
25439;SDS011;13365;52.208;5.488;2023-11-21T05:15:07;23.92;;;9.85;;
25439;SDS011;13365;52.208;5.488;2023-11-21T05:17:36;27.10;;;8.65;;
25439;SDS011;13365;52.208;5.488;2023-11-21T05:20:04;23.23;;;9.65;;
25439;SDS011;13365;52.208;5.488;2023-11-21T05:22:33;25.70;;;9.98;;
25439;SDS011;13365;52.208;5.488;2023-11-21T05:24:59;26.58;;;9.73;;
25439;SDS011;13365;52.208;5.488;2023-11-21T05:27:25;31.40;;;10.13;;
25439;SDS011;13365;52.208;5.488;2023-11-21T05:29:50;20.75;;;9.52;;
25439;SDS011;13365;52.208;5.488;2023-11-21T05:32:16;19.30;;;9.15;;
25439;SDS011;13365;52.208;5.488;2023-11-21T05:34:42;21.80;;;9.60;;
25439;SDS011;13365;52.208;5.488;2023-11-21T05:37:08;26.38;;;9.77;;
25439;SDS011;13365;52.208;5.488;2023-11-21T05:39:33;28.67;;;9.85;;
25439;SDS011;13365;52.208;5.488;2023-11-21T05:41:59;24.42;;;9.25;;
25439;SDS011;13365;52.208;5.488;2023-11-21T05:44:25;28.98;;;10.30;;
25439;SDS011;13365;52.208;5.488;2023-11-21T05:46:51;28.52;;;9.15;;
25439;SDS011;13365;52.208;5.488;2023-11-21T05:49:16;28.45;;;10.40;;
25439;SDS011;13365;52.208;5.488;2023-11-21T05:51:42;31.80;;;10.32;;
25439;SDS011;13365;52.208;5.488;2023-11-21T05:54:10;18.92;;;8.93;;
25439;SDS011;13365;52.208;5.488;2023-11-21T05:56:35;24.02;;;9.40;;
25439;SDS011;13365;52.208;5.488;2023-11-21T05:59:01;25.35;;;9.63;;
25439;SDS011;13365;52.208;5.488;2023-11-21T06:01:28;25.40;;;9.45;;
25439;SDS011;13365;52.208;5.488;2023-11-21T06:03:54;21.63;;;9.75;;
25439;SDS011;13365;52.208;5.488;2023-11-21T06:06:20;23.80;;;9.90;;
25439;SDS011;13365;52.208;5.488;2023-11-21T06:08:47;21.95;;;9.27;;
25439;SDS011;13365;52.208;5.488;2023-11-21T06:11:13;24.13;;;8.88;;
25439;SDS011;13365;52.208;5.488;2023-11-21T06:13:39;22.90;;;8.80;;
25439;SDS011;13365;52.208;5.488;2023-11-21T06:16:05;21.35;;;9.43;;
25439;SDS011;13365;52.208;5.488;2023-11-21T06:18:30;21.25;;;9.00;;
25439;SDS011;13365;52.208;5.488;2023-11-21T06:20:56;23.65;;;8.73;;
25439;SDS011;13365;52.208;5.488;2023-11-21T06:23:21;19.50;;;9.93;;
25439;SDS011;13365;52.208;5.488;2023-11-21T06:25:47;25.33;;;9.05;;
25439;SDS011;13365;52.208;5.488;2023-11-21T06:28:13;20.95;;;9.57;;
25439;SDS011;13365;52.208;5.488;2023-11-21T06:30:42;21.15;;;8.30;;
25439;SDS011;13365;52.208;5.488;2023-11-21T06:33:09;42.88;;;9.15;;
25439;SDS011;13365;52.208;5.488;2023-11-21T06:35:34;23.83;;;8.98;;
25439;SDS011;13365;52.208;5.488;2023-11-21T06:38:00;23.67;;;8.38;;
25439;SDS011;13365;52.208;5.488;2023-11-21T06:40:25;23.92;;;9.00;;
25439;SDS011;13365;52.208;5.488;2023-11-21T06:42:51;19.08;;;8.93;;
25439;SDS011;13365;52.208;5.488;2023-11-21T06:45:17;23.35;;;8.70;;
25439;SDS011;13365;52.208;5.488;2023-11-21T06:47:43;24.48;;;9.65;;
25439;SDS011;13365;52.208;5.488;2023-11-21T06:50:08;17.55;;;8.15;;
25439;SDS011;13365;52.208;5.488;2023-11-21T06:52:34;21.55;;;9.50;;
25439;SDS011;13365;52.208;5.488;2023-11-21T06:55:00;20.40;;;9.10;;
25439;SDS011;13365;52.208;5.488;2023-11-21T06:57:26;25.42;;;8.52;;
25439;SDS011;13365;52.208;5.488;2023-11-21T06:59:52;19.10;;;8.52;;
25439;SDS011;13365;52.208;5.488;2023-11-21T07:02:18;24.27;;;9.52;;
25439;SDS011;13365;52.208;5.488;2023-11-21T07:04:46;25.35;;;8.27;;
25439;SDS011;13365;52.208;5.488;2023-11-21T07:07:12;16.90;;;8.00;;
25439;SDS011;13365;52.208;5.488;2023-11-21T07:09:38;19.23;;;8.75;;
25439;SDS011;13365;52.208;5.488;2023-11-21T07:12:04;18.70;;;7.70;;
25439;SDS011;13365;52.208;5.488;2023-11-21T07:14:32;16.40;;;7.13;;
25439;SDS011;13365;52.208;5.488;2023-11-21T07:17:00;24.23;;;8.23;;
25439;SDS011;13365;52.208;5.488;2023-11-21T07:19:26;18.83;;;8.10;;
25439;SDS011;13365;52.208;5.488;2023-11-21T07:21:51;20.58;;;9.80;;
25439;SDS011;13365;52.208;5.488;2023-11-21T07:24:17;16.75;;;7.40;;
25439;SDS011;13365;52.208;5.488;2023-11-21T07:26:43;20.27;;;8.20;;
25439;SDS011;13365;52.208;5.488;2023-11-21T07:29:08;15.93;;;7.95;;
25439;SDS011;13365;52.208;5.488;2023-11-21T07:31:34;21.50;;;8.90;;
25439;SDS011;13365;52.208;5.488;2023-11-21T07:34:00;16.88;;;7.90;;
25439;SDS011;13365;52.208;5.488;2023-11-21T07:36:25;16.27;;;8.40;;
25439;SDS011;13365;52.208;5.488;2023-11-21T07:38:51;19.85;;;8.15;;
25439;SDS011;13365;52.208;5.488;2023-11-21T07:41:17;14.55;;;7.15;;
25439;SDS011;13365;52.208;5.488;2023-11-21T07:43:46;17.77;;;7.63;;
25439;SDS011;13365;52.208;5.488;2023-11-21T07:46:12;17.95;;;7.65;;
25439;SDS011;13365;52.208;5.488;2023-11-21T07:48:38;20.13;;;8.13;;
25439;SDS011;13365;52.208;5.488;2023-11-21T07:51:05;13.25;;;7.88;;
25439;SDS011;13365;52.208;5.488;2023-11-21T07:53:31;17.40;;;7.35;;
25439;SDS011;13365;52.208;5.488;2023-11-21T07:55:58;17.23;;;7.20;;
25439;SDS011;13365;52.208;5.488;2023-11-21T07:58:24;16.65;;;7.32;;
25439;SDS011;13365;52.208;5.488;2023-11-21T08:00:49;13.05;;;6.47;;
25439;SDS011;13365;52.208;5.488;2023-11-21T08:03:15;16.75;;;6.25;;
25439;SDS011;13365;52.208;5.488;2023-11-21T08:05:41;20.27;;;5.70;;
25439;SDS011;13365;52.208;5.488;2023-11-21T08:08:07;14.55;;;5.40;;
25439;SDS011;13365;52.208;5.488;2023-11-21T08:10:33;11.85;;;5.15;;
25439;SDS011;13365;52.208;5.488;2023-11-21T08:13:00;14.07;;;5.32;;
25439;SDS011;13365;52.208;5.488;2023-11-21T08:15:26;15.40;;;5.75;;
25439;SDS011;13365;52.208;5.488;2023-11-21T08:17:53;19.92;;;5.50;;
25439;SDS011;13365;52.208;5.488;2023-11-21T08:20:19;13.43;;;5.03;;
25439;SDS011;13365;52.208;5.488;2023-11-21T08:22:44;13.63;;;6.10;;
25439;SDS011;13365;52.208;5.488;2023-11-21T08:25:12;14.90;;;5.72;;
25439;SDS011;13365;52.208;5.488;2023-11-21T08:27:38;20.38;;;5.82;;
25439;SDS011;13365;52.208;5.488;2023-11-21T08:30:04;15.85;;;6.30;;
25439;SDS011;13365;52.208;5.488;2023-11-21T08:32:29;16.42;;;6.25;;
25439;SDS011;13365;52.208;5.488;2023-11-21T08:34:57;18.33;;;7.32;;
25439;SDS011;13365;52.208;5.488;2023-11-21T08:37:23;15.95;;;6.95;;
25439;SDS011;13365;52.208;5.488;2023-11-21T08:39:48;17.38;;;7.72;;
25439;SDS011;13365;52.208;5.488;2023-11-21T08:42:14;17.38;;;7.47;;
25439;SDS011;13365;52.208;5.488;2023-11-21T08:44:40;22.23;;;8.60;;
25439;SDS011;13365;52.208;5.488;2023-11-21T08:47:06;19.70;;;8.07;;
25439;SDS011;13365;52.208;5.488;2023-11-21T08:49:32;16.38;;;8.27;;
25439;SDS011;13365;52.208;5.488;2023-11-21T08:51:58;29.33;;;9.32;;
25439;SDS011;13365;52.208;5.488;2023-11-21T08:54:24;26.05;;;11.05;;
25439;SDS011;13365;52.208;5.488;2023-11-21T08:56:53;26.85;;;11.27;;
25439;SDS011;13365;52.208;5.488;2023-11-21T08:59:19;36.60;;;13.23;;
25439;SDS011;13365;52.208;5.488;2023-11-21T09:01:45;39.97;;;14.27;;
25439;SDS011;13365;52.208;5.488;2023-11-21T09:04:12;28.85;;;12.45;;
25439;SDS011;13365;52.208;5.488;2023-11-21T09:06:37;34.35;;;13.73;;
25439;SDS011;13365;52.208;5.488;2023-11-21T09:09:04;31.80;;;11.77;;
25439;SDS011;13365;52.208;5.488;2023-11-21T09:11:31;29.08;;;12.55;;
25439;SDS011;13365;52.208;5.488;2023-11-21T09:14:00;30.20;;;12.80;;
25439;SDS011;13365;52.208;5.488;2023-11-21T09:16:26;23.02;;;11.60;;
25439;SDS011;13365;52.208;5.488;2023-11-21T09:18:51;25.90;;;12.40;;
25439;SDS011;13365;52.208;5.488;2023-11-21T09:21:17;26.42;;;12.05;;
25439;SDS011;13365;52.208;5.488;2023-11-21T09:23:44;24.45;;;12.25;;
25439;SDS011;13365;52.208;5.488;2023-11-21T09:26:09;27.38;;;11.82;;
25439;SDS011;13365;52.208;5.488;2023-11-21T09:28:35;22.38;;;11.38;;
25439;SDS011;13365;52.208;5.488;2023-11-21T09:31:02;24.65;;;12.00;;
25439;SDS011;13365;52.208;5.488;2023-11-21T09:33:30;25.75;;;10.48;;
25439;SDS011;13365;52.208;5.488;2023-11-21T09:35:56;23.80;;;11.75;;
25439;SDS011;13365;52.208;5.488;2023-11-21T09:38:22;25.33;;;10.32;;
25439;SDS011;13365;52.208;5.488;2023-11-21T09:40:48;26.63;;;10.55;;
25439;SDS011;13365;52.208;5.488;2023-11-21T09:43:15;25.42;;;11.23;;
25439;SDS011;13365;52.208;5.488;2023-11-21T09:45:43;27.10;;;10.88;;
25439;SDS011;13365;52.208;5.488;2023-11-21T09:48:18;25.27;;;9.95;;
25439;SDS011;13365;52.208;5.488;2023-11-21T09:50:46;21.60;;;9.88;;
25439;SDS011;13365;52.208;5.488;2023-11-21T09:53:13;23.75;;;9.82;;
25439;SDS011;13365;52.208;5.488;2023-11-21T09:55:44;22.08;;;9.88;;
25439;SDS011;13365;52.208;5.488;2023-11-21T09:58:11;23.88;;;10.10;;
25439;SDS011;13365;52.208;5.488;2023-11-21T10:00:42;24.65;;;9.93;;
25439;SDS011;13365;52.208;5.488;2023-11-21T10:03:11;19.80;;;9.23;;
25439;SDS011;13365;52.208;5.488;2023-11-21T10:05:38;19.20;;;9.40;;
25439;SDS011;13365;52.208;5.488;2023-11-21T10:08:04;20.10;;;8.52;;
25439;SDS011;13365;52.208;5.488;2023-11-21T10:10:33;21.80;;;9.95;;
25439;SDS011;13365;52.208;5.488;2023-11-21T10:13:01;21.02;;;9.55;;
25439;SDS011;13365;52.208;5.488;2023-11-21T10:15:31;20.58;;;9.95;;
25439;SDS011;13365;52.208;5.488;2023-11-21T10:17:59;24.42;;;10.35;;
25439;SDS011;13365;52.208;5.488;2023-11-21T10:20:28;24.42;;;11.00;;
25439;SDS011;13365;52.208;5.488;2023-11-21T10:22:54;18.98;;;9.23;;
25439;SDS011;13365;52.208;5.488;2023-11-21T10:25:21;20.27;;;8.48;;
25439;SDS011;13365;52.208;5.488;2023-11-21T10:27:48;20.95;;;8.27;;
25439;SDS011;13365;52.208;5.488;2023-11-21T10:30:17;18.52;;;8.68;;
25439;SDS011;13365;52.208;5.488;2023-11-21T10:32:43;19.02;;;8.98;;
25439;SDS011;13365;52.208;5.488;2023-11-21T10:35:09;21.55;;;9.88;;
25439;SDS011;13365;52.208;5.488;2023-11-21T10:37:36;18.98;;;9.07;;
25439;SDS011;13365;52.208;5.488;2023-11-21T10:40:04;24.88;;;9.98;;
25439;SDS011;13365;52.208;5.488;2023-11-21T10:42:37;22.55;;;9.40;;
25439;SDS011;13365;52.208;5.488;2023-11-21T10:45:07;21.20;;;9.45;;
25439;SDS011;13365;52.208;5.488;2023-11-21T10:47:40;23.45;;;9.65;;
25439;SDS011;13365;52.208;5.488;2023-11-21T10:50:06;24.50;;;10.50;;
25439;SDS011;13365;52.208;5.488;2023-11-21T10:52:36;21.00;;;9.65;;
25439;SDS011;13365;52.208;5.488;2023-11-21T10:55:18;22.95;;;10.23;;
25439;SDS011;13365;52.208;5.488;2023-11-21T10:57:51;16.13;;;8.80;;
25439;SDS011;13365;52.208;5.488;2023-11-21T11:00:19;20.05;;;9.02;;
25439;SDS011;13365;52.208;5.488;2023-11-21T11:02:46;18.33;;;9.35;;
25439;SDS011;13365;52.208;5.488;2023-11-21T11:05:19;16.35;;;8.65;;
25439;SDS011;13365;52.208;5.488;2023-11-21T11:07:47;19.17;;;9.68;;
25439;SDS011;13365;52.208;5.488;2023-11-21T11:10:19;16.15;;;8.82;;
25439;SDS011;13365;52.208;5.488;2023-11-21T11:12:51;16.38;;;9.02;;
25439;SDS011;13365;52.208;5.488;2023-11-21T11:15:17;17.67;;;8.82;;
25439;SDS011;13365;52.208;5.488;2023-11-21T11:17:44;17.30;;;9.23;;
25439;SDS011;13365;52.208;5.488;2023-11-21T11:20:11;20.55;;;10.20;;
25439;SDS011;13365;52.208;5.488;2023-11-21T11:25:21;25.15;;;11.30;;
25439;SDS011;13365;52.208;5.488;2023-11-21T11:28:06;22.98;;;10.52;;
25439;SDS011;13365;52.208;5.488;2023-11-21T11:34:04;20.98;;;10.38;;
25439;SDS011;13365;52.208;5.488;2023-11-21T11:36:51;22.08;;;11.10;;
25439;SDS011;13365;52.208;5.488;2023-11-21T11:39:27;27.95;;;11.15;;
25439;SDS011;13365;52.208;5.488;2023-11-21T11:42:04;26.00;;;11.73;;
25439;SDS011;13365;52.208;5.488;2023-11-21T11:47:22;24.98;;;11.52;;
25439;SDS011;13365;52.208;5.488;2023-11-21T11:50:10;25.00;;;12.68;;
25439;SDS011;13365;52.208;5.488;2023-11-21T11:52:51;27.15;;;12.25;;
25439;SDS011;13365;52.208;5.488;2023-11-21T11:55:22;27.55;;;13.13;;
25439;SDS011;13365;52.208;5.488;2023-11-21T11:57:52;27.13;;;13.45;;
25439;SDS011;13365;52.208;5.488;2023-11-21T12:00:22;28.65;;;12.15;;
25439;SDS011;13365;52.208;5.488;2023-11-21T12:03:02;27.77;;;12.38;;
25439;SDS011;13365;52.208;5.488;2023-11-21T12:05:30;27.15;;;12.82;;
25439;SDS011;13365;52.208;5.488;2023-11-21T12:07:59;25.92;;;12.88;;
25439;SDS011;13365;52.208;5.488;2023-11-21T12:10:30;23.75;;;12.13;;
25439;SDS011;13365;52.208;5.488;2023-11-21T12:12:57;28.50;;;12.75;;
25439;SDS011;13365;52.208;5.488;2023-11-21T12:15:24;24.85;;;13.20;;
25439;SDS011;13365;52.208;5.488;2023-11-21T12:17:50;26.30;;;12.93;;
25439;SDS011;13365;52.208;5.488;2023-11-21T12:20:21;26.40;;;12.93;;
25439;SDS011;13365;52.208;5.488;2023-11-21T12:22:49;26.30;;;12.63;;
25439;SDS011;13365;52.208;5.488;2023-11-21T12:25:16;23.35;;;11.10;;
25439;SDS011;13365;52.208;5.488;2023-11-21T12:27:46;21.10;;;10.40;;
25439;SDS011;13365;52.208;5.488;2023-11-21T12:30:19;22.73;;;11.18;;
25439;SDS011;13365;52.208;5.488;2023-11-21T12:32:50;19.23;;;8.88;;
25439;SDS011;13365;52.208;5.488;2023-11-21T12:35:17;18.83;;;9.63;;
25439;SDS011;13365;52.208;5.488;2023-11-21T12:37:44;18.52;;;8.40;;
25439;SDS011;13365;52.208;5.488;2023-11-21T12:40:11;16.40;;;7.85;;
25439;SDS011;13365;52.208;5.488;2023-11-21T12:42:40;15.05;;;7.18;;
25439;SDS011;13365;52.208;5.488;2023-11-21T12:47:36;14.35;;;7.18;;
25439;SDS011;13365;52.208;5.488;2023-11-21T12:50:02;10.48;;;6.45;;
25439;SDS011;13365;52.208;5.488;2023-11-21T12:52:30;14.90;;;6.60;;
25439;SDS011;13365;52.208;5.488;2023-11-21T12:54:56;14.88;;;6.90;;
25439;SDS011;13365;52.208;5.488;2023-11-21T12:57:25;12.90;;;5.55;;
25439;SDS011;13365;52.208;5.488;2023-11-21T12:59:52;11.20;;;5.68;;
25439;SDS011;13365;52.208;5.488;2023-11-21T13:02:22;11.63;;;5.47;;
25439;SDS011;13365;52.208;5.488;2023-11-21T13:04:53;10.30;;;3.83;;
25439;SDS011;13365;52.208;5.488;2023-11-21T13:07:23;9.52;;;4.10;;
25439;SDS011;13365;52.208;5.488;2023-11-21T13:09:51;11.70;;;3.90;;
25439;SDS011;13365;52.208;5.488;2023-11-21T13:12:23;8.25;;;3.95;;
25439;SDS011;13365;52.208;5.488;2023-11-21T13:14:49;7.38;;;3.20;;
25439;SDS011;13365;52.208;5.488;2023-11-21T13:17:15;8.63;;;4.20;;
25439;SDS011;13365;52.208;5.488;2023-11-21T13:19:40;10.70;;;4.22;;
25439;SDS011;13365;52.208;5.488;2023-11-21T13:22:07;9.65;;;4.25;;
25439;SDS011;13365;52.208;5.488;2023-11-21T13:24:36;11.75;;;4.47;;
25439;SDS011;13365;52.208;5.488;2023-11-21T13:27:01;12.40;;;5.60;;
25439;SDS011;13365;52.208;5.488;2023-11-21T13:29:27;12.02;;;6.05;;
25439;SDS011;13365;52.208;5.488;2023-11-21T13:31:54;12.35;;;6.38;;
25439;SDS011;13365;52.208;5.488;2023-11-21T13:34:20;14.70;;;7.13;;
25439;SDS011;13365;52.208;5.488;2023-11-21T13:36:47;16.90;;;7.68;;
25439;SDS011;13365;52.208;5.488;2023-11-21T13:39:13;18.17;;;8.43;;
25439;SDS011;13365;52.208;5.488;2023-11-21T13:41:40;18.35;;;8.55;;
25439;SDS011;13365;52.208;5.488;2023-11-21T13:44:06;16.92;;;8.43;;
25439;SDS011;13365;52.208;5.488;2023-11-21T13:46:41;23.80;;;10.30;;
25439;SDS011;13365;52.208;5.488;2023-11-21T13:49:06;21.58;;;10.50;;
25439;SDS011;13365;52.208;5.488;2023-11-21T13:51:36;23.13;;;11.25;;
25439;SDS011;13365;52.208;5.488;2023-11-21T13:54:13;23.98;;;10.18;;
25439;SDS011;13365;52.208;5.488;2023-11-21T13:56:38;21.75;;;10.57;;
25439;SDS011;13365;52.208;5.488;2023-11-21T13:59:06;21.63;;;11.32;;
25439;SDS011;13365;52.208;5.488;2023-11-21T14:01:48;21.60;;;10.40;;
25439;SDS011;13365;52.208;5.488;2023-11-21T14:04:24;22.70;;;11.23;;
25439;SDS011;13365;52.208;5.488;2023-11-21T14:07:08;21.77;;;10.93;;
25439;SDS011;13365;52.208;5.488;2023-11-21T14:09:50;22.83;;;10.50;;
25439;SDS011;13365;52.208;5.488;2023-11-21T14:12:17;22.65;;;11.45;;
25439;SDS011;13365;52.208;5.488;2023-11-21T14:14:43;21.33;;;10.35;;
25439;SDS011;13365;52.208;5.488;2023-11-21T14:17:10;26.42;;;11.93;;
25439;SDS011;13365;52.208;5.488;2023-11-21T14:19:35;24.75;;;11.75;;
25439;SDS011;13365;52.208;5.488;2023-11-21T14:22:05;23.77;;;11.60;;
25439;SDS011;13365;52.208;5.488;2023-11-21T14:24:32;21.42;;;11.60;;
25439;SDS011;13365;52.208;5.488;2023-11-21T14:26:58;24.90;;;12.52;;
25439;SDS011;13365;52.208;5.488;2023-11-21T14:29:24;23.52;;;11.88;;
25439;SDS011;13365;52.208;5.488;2023-11-21T14:31:51;23.35;;;12.15;;
25439;SDS011;13365;52.208;5.488;2023-11-21T14:34:18;25.67;;;12.27;;
25439;SDS011;13365;52.208;5.488;2023-11-21T14:36:46;29.55;;;13.70;;
25439;SDS011;13365;52.208;5.488;2023-11-21T14:39:12;30.67;;;14.25;;
25439;SDS011;13365;52.208;5.488;2023-11-21T14:41:51;30.95;;;14.27;;
25439;SDS011;13365;52.208;5.488;2023-11-21T14:44:19;32.08;;;15.73;;